Time;durP1;ratioP1;P1;durP2;ratioP2;P2;SDS_P1;SDS_P2;PMS_P1;PMS_P2;Temp;Humidity;BMP_temperature;BMP_pressure;BME280_temperature;BME280_humidity;BME280_pressure;Samples;Min_cycle;Max_cycle;Signal;HPM_P1;HPM_P2
2021/04/08 00:00:27;;;;;;;15.40;6.33;;;2.40;92.70;;;;;;5070141;28;20196;-71
2021/04/08 00:02:52;;;;;;;13.23;6.57;;;2.20;93.40;;;;;;5070187;28;20422;-71
2021/04/08 00:05:18;;;;;;;18.43;6.20;;;2.10;94.10;;;;;;5070365;28;20560;-72
2021/04/08 00:07:44;;;;;;;13.70;6.90;;;1.90;95.00;;;;;;5070393;28;20473;-72
2021/04/08 00:10:11;;;;;;;15.03;7.50;;;1.90;95.60;;;;;;5074844;28;20456;-72
2021/04/08 00:12:37;;;;;;;17.35;7.60;;;1.70;96.30;;;;;;5073845;28;20187;-72
2021/04/08 00:15:07;;;;;;;13.60;7.03;;;1.70;96.70;;;;;;5067229;28;20180;-73
2021/04/08 00:17:32;;;;;;;12.68;6.80;;;1.70;97.00;;;;;;5074513;28;20453;-72
2021/04/08 00:19:58;;;;;;;12.40;6.93;;;1.80;97.40;;;;;;5071468;28;20270;-71
2021/04/08 00:22:24;;;;;;;16.00;7.83;;;1.60;97.50;;;;;;5070216;28;20241;-74
2021/04/08 00:24:49;;;;;;;15.33;7.43;;;1.70;97.70;;;;;;5072841;28;20718;-73
2021/04/08 00:27:15;;;;;;;15.17;7.10;;;1.60;97.80;;;;;;5073187;28;20281;-73
2021/04/08 00:29:41;;;;;;;13.27;6.30;;;1.60;97.70;;;;;;5074371;28;20180;-70
2021/04/08 00:32:07;;;;;;;9.73;5.90;;;1.60;97.50;;;;;;5070404;28;20184;-72
2021/04/08 00:34:32;;;;;;;10.70;6.07;;;1.70;97.50;;;;;;5069431;28;20192;-70
2021/04/08 00:36:58;;;;;;;13.63;6.00;;;1.70;97.10;;;;;;5067532;28;20218;-73
2021/04/08 00:39:24;;;;;;;14.40;6.33;;;1.70;96.70;;;;;;5074409;28;20172;-71
2021/04/08 00:41:50;;;;;;;10.40;6.40;;;1.70;96.50;;;;;;5073070;28;20183;-72
2021/04/08 00:44:15;;;;;;;15.70;6.53;;;1.80;96.30;;;;;;5068507;28;20606;-73
2021/04/08 00:46:41;;;;;;;14.07;6.23;;;1.80;96.30;;;;;;5069578;28;20274;-73
2021/04/08 00:49:07;;;;;;;11.00;6.70;;;1.80;96.30;;;;;;5069677;28;20468;-74
2021/04/08 00:51:33;;;;;;;13.03;6.40;;;1.80;96.30;;;;;;5070259;28;20546;-74
2021/04/08 00:53:59;;;;;;;11.00;6.17;;;1.90;95.90;;;;;;5071887;28;20269;-74
2021/04/08 00:56:25;;;;;;;13.90;6.33;;;1.90;95.50;;;;;;5072124;28;20444;-72
2021/04/08 00:58:51;;;;;;;11.93;5.83;;;2.00;95.20;;;;;;5069046;28;20514;-72
2021/04/08 01:01:17;;;;;;;10.60;6.07;;;2.00;94.60;;;;;;5073131;28;20933;-73
2021/04/08 01:03:43;;;;;;;14.30;5.37;;;2.00;94.40;;;;;;5072581;28;20196;-72
2021/04/08 01:06:09;;;;;;;14.03;5.93;;;2.10;94.20;;;;;;5072033;28;20456;-71
2021/04/08 01:08:38;;;;;;;13.57;5.93;;;2.10;93.90;;;;;;5072946;28;20263;-72
2021/04/08 01:11:04;;;;;;;11.23;6.07;;;2.10;93.60;;;;;;5073064;28;20180;-72
2021/04/08 01:13:32;;;;;;;13.50;5.88;;;2.20;93.50;;;;;;5071232;28;20627;-71
2021/04/08 01:16:05;;;;;;;12.00;5.30;;;2.30;93.00;;;;;;5063486;28;20204;-73
2021/04/08 01:19:12;;;;;;;10.77;5.38;;;2.20;92.60;;;;;;5073090;28;20214;-73
2021/04/08 01:21:42;;;;;;;12.50;6.10;;;2.30;92.30;;;;;;5063148;28;20199;-73
2021/04/08 01:24:45;;;;;;;12.20;5.97;;;2.30;92.40;;;;;;5071404;28;20183;-73
2021/04/08 01:27:34;;;;;;;13.05;6.18;;;2.30;92.50;;;;;;5068359;28;20212;-72
2021/04/08 01:30:38;;;;;;;9.75;5.55;;;2.30;92.30;;;;;;5070466;28;20242;-73
2021/04/08 01:33:06;;;;;;;12.20;6.70;;;2.30;92.40;;;;;;5074521;28;20588;-71
2021/04/08 01:35:34;;;;;;;12.10;6.47;;;2.40;92.20;;;;;;5072654;28;20188;-73
2021/04/08 01:38:08;;;;;;;14.23;5.95;;;2.40;92.30;;;;;;5072788;28;20211;-72
2021/04/08 01:40:35;;;;;;;10.23;5.72;;;2.40;92.00;;;;;;5071483;28;20203;-74
2021/04/08 01:43:02;;;;;;;14.00;6.55;;;2.40;92.00;;;;;;5071326;28;20248;-73
2021/04/08 01:45:29;;;;;;;12.55;7.07;;;2.40;91.90;;;;;;5074657;28;20347;-72
2021/04/08 01:47:57;;;;;;;11.90;6.30;;;2.40;91.90;;;;;;5070503;28;20478;-74
2021/04/08 01:50:24;;;;;;;10.50;5.93;;;2.50;91.80;;;;;;5071317;28;20230;-73
2021/04/08 01:52:51;;;;;;;15.00;6.65;;;2.50;91.70;;;;;;5070915;28;20588;-73
2021/04/08 01:55:19;;;;;;;12.25;7.13;;;2.50;91.50;;;;;;5070418;28;20184;-72
2021/04/08 01:57:47;;;;;;;14.07;6.80;;;2.50;91.60;;;;;;5071005;28;20337;-73
2021/04/08 02:00:15;;;;;;;9.85;5.63;;;2.60;91.90;;;;;;5071996;28;20215;-73
2021/04/08 02:02:44;;;;;;;10.00;5.55;;;2.60;91.70;;;;;;5067019;28;20191;-72
2021/04/08 02:05:13;;;;;;;9.88;6.32;;;2.60;90.90;;;;;;5064873;28;20180;-75
2021/04/08 02:07:40;;;;;;;10.25;5.63;;;2.60;91.10;;;;;;5071570;28;20215;-73
2021/04/08 02:10:08;;;;;;;13.13;6.00;;;2.50;91.00;;;;;;5071949;28;20204;-73
2021/04/08 02:12:38;;;;;;;11.75;5.38;;;2.50;90.60;;;;;;5072392;28;20433;-72
2021/04/08 02:15:06;;;;;;;9.43;5.60;;;2.40;90.10;;;;;;5062446;28;20187;-73
2021/04/08 02:17:35;;;;;;;10.15;4.75;;;2.40;90.40;;;;;;5072826;28;20260;-72
2021/04/08 02:20:17;;;;;;;11.77;5.28;;;2.50;90.00;;;;;;5071223;28;20187;-73
2021/04/08 02:22:49;;;;;;;8.48;4.60;;;2.40;89.60;;;;;;5071329;28;20187;-74
2021/04/08 02:25:16;;;;;;;14.63;4.55;;;2.30;89.70;;;;;;5068738;28;20663;-72
2021/04/08 02:27:43;;;;;;;9.85;4.15;;;2.40;89.90;;;;;;5070693;28;20230;-73
2021/04/08 02:30:12;;;;;;;8.15;4.15;;;2.30;89.70;;;;;;5066355;28;20748;-72
2021/04/08 02:32:39;;;;;;;8.40;5.93;;;2.30;89.50;;;;;;5063692;28;20625;-73
2021/04/08 02:35:16;;;;;;;7.55;4.82;;;2.30;89.60;;;;;;5070239;28;20241;-73
2021/04/08 02:37:43;;;;;;;9.87;4.73;;;2.30;89.90;;;;;;5070451;28;20253;-73
2021/04/08 02:40:13;;;;;;;9.47;5.20;;;2.30;90.00;;;;;;5070099;28;20437;-72
2021/04/08 02:42:38;;;;;;;8.20;4.30;;;2.40;90.10;;;;;;5068608;28;21045;-73
2021/04/08 02:45:06;;;;;;;10.53;5.10;;;2.40;90.30;;;;;;5069267;28;20450;-72
2021/04/08 02:47:31;;;;;;;6.93;4.43;;;2.40;90.10;;;;;;5069585;28;20214;-71
2021/04/08 02:49:58;;;;;;;9.20;4.53;;;2.40;89.90;;;;;;5070046;28;20188;-72
2021/04/08 02:52:39;;;;;;;12.37;4.73;;;2.40;89.60;;;;;;5069482;28;20274;-72
2021/04/08 02:55:27;;;;;;;8.00;4.55;;;2.50;89.60;;;;;;5068189;28;20445;-72
2021/04/08 02:58:04;;;;;;;6.97;3.92;;;2.50;89.30;;;;;;5065714;28;20291;-72
2021/04/08 03:00:36;;;;;;;11.45;4.30;;;2.40;88.90;;;;;;5064316;28;20262;-72
2021/04/08 03:03:11;;;;;;;10.45;4.10;;;2.50;88.60;;;;;;5065974;28;20200;-72
2021/04/08 03:05:43;;;;;;;7.10;4.25;;;2.50;88.30;;;;;;5066451;28;20202;-72
2021/04/08 03:08:12;;;;;;;4.95;3.75;;;2.50;88.70;;;;;;5072732;28;20211;-72
2021/04/08 03:10:40;;;;;;;6.10;4.03;;;2.50;88.70;;;;;;5074475;28;20183;-72
2021/04/08 03:13:09;;;;;;;10.73;4.00;;;2.50;88.60;;;;;;5069783;28;20689;-72
2021/04/08 03:15:36;;;;;;;10.23;4.25;;;2.50;88.90;;;;;;5064029;28;20196;-72
2021/04/08 03:18:07;;;;;;;10.47;4.40;;;2.50;88.30;;;;;;5060040;28;20187;-73
2021/04/08 03:20:34;;;;;;;9.15;4.07;;;2.50;87.60;;;;;;5069669;28;20912;-73
2021/04/08 03:23:04;;;;;;;9.15;4.10;;;2.50;86.90;;;;;;5069576;28;20348;-73
2021/04/08 03:25:31;;;;;;;6.82;3.47;;;2.50;86.90;;;;;;5059617;28;20210;-72
2021/04/08 03:27:57;;;;;;;12.10;4.45;;;2.50;87.30;;;;;;5074848;28;20211;-73
2021/04/08 03:30:24;;;;;;;6.50;3.65;;;2.60;87.30;;;;;;5076464;28;20191;-71
2021/04/08 03:32:50;;;;;;;6.75;4.40;;;2.60;87.10;;;;;;5071091;28;20179;-72
2021/04/08 03:35:17;;;;;;;9.25;3.70;;;2.70;87.10;;;;;;5069334;28;20211;-71
2021/04/08 03:37:43;;;;;;;6.30;3.90;;;2.60;86.90;;;;;;5070150;28;20830;-72
2021/04/08 03:40:10;;;;;;;7.00;3.40;;;2.60;87.10;;;;;;5071287;28;20187;-72
2021/04/08 03:42:37;;;;;;;7.10;4.00;;;2.50;87.30;;;;;;5070932;28;20434;-71
2021/04/08 03:45:04;;;;;;;20.52;4.53;;;2.50;87.60;;;;;;5070425;28;20175;-72
2021/04/08 03:47:31;;;;;;;11.18;6.43;;;2.60;87.70;;;;;;5070193;28;20200;-72
2021/04/08 03:49:58;;;;;;;8.23;5.28;;;2.50;87.70;;;;;;5069863;28;20191;-73
2021/04/08 03:52:24;;;;;;;6.77;4.03;;;2.60;88.30;;;;;;5068986;28;20674;-72
2021/04/08 03:54:51;;;;;;;7.70;3.63;;;2.50;86.90;;;;;;5072143;28;20425;-73
2021/04/08 03:57:19;;;;;;;11.05;4.60;;;2.50;88.10;;;;;;5076388;28;20262;-73
2021/04/08 03:59:46;;;;;;;8.13;4.40;;;2.50;88.40;;;;;;5066020;28;20304;-72
2021/04/08 04:02:13;;;;;;;8.63;4.47;;;2.40;88.60;;;;;;5064476;28;20184;-72
2021/04/08 04:04:40;;;;;;;6.40;4.00;;;2.40;88.40;;;;;;5076620;28;20206;-72
2021/04/08 04:07:06;;;;;;;13.60;4.88;;;2.40;88.60;;;;;;5077457;28;20295;-72
2021/04/08 04:09:32;;;;;;;12.23;4.05;;;2.40;89.00;;;;;;5071327;28;20252;-73
2021/04/08 04:11:58;;;;;;;6.20;3.60;;;2.40;89.00;;;;;;5068668;28;20172;-72
2021/04/08 04:14:28;;;;;;;11.85;4.30;;;2.40;89.20;;;;;;5064534;28;20428;-72
2021/04/08 04:16:55;;;;;;;7.80;3.45;;;2.40;89.60;;;;;;5064436;28;20245;-72
2021/04/08 04:19:24;;;;;;;7.15;4.20;;;2.30;89.90;;;;;;5069434;28;20184;-72
2021/04/08 04:21:51;;;;;;;7.43;3.88;;;2.30;90.00;;;;;;5068838;28;20967;-71
2021/04/08 04:24:17;;;;;;;7.78;3.95;;;2.30;90.10;;;;;;5069023;28;20184;-72
2021/04/08 04:26:43;;;;;;;9.33;4.43;;;2.30;90.20;;;;;;5069160;28;20200;-72
2021/04/08 04:29:11;;;;;;;6.90;3.80;;;2.30;90.30;;;;;;5073018;28;20219;-72
2021/04/08 04:31:38;;;;;;;8.68;4.32;;;2.20;90.50;;;;;;5073054;28;20190;-75
2021/04/08 04:34:05;;;;;;;13.90;5.03;;;2.20;90.80;;;;;;5071265;28;20195;-72
2021/04/08 04:36:34;;;;;;;9.50;4.72;;;2.20;90.80;;;;;;5071813;28;20319;-74
2021/04/08 04:39:02;;;;;;;7.78;3.80;;;2.20;91.10;;;;;;5073268;28;20190;-73
2021/04/08 04:41:28;;;;;;;8.60;4.00;;;2.20;91.20;;;;;;5073744;28;20180;-73
2021/04/08 04:43:53;;;;;;;7.20;3.60;;;2.20;90.70;;;;;;5072987;28;20571;-75
2021/04/08 04:46:19;;;;;;;6.20;3.93;;;2.30;90.20;;;;;;5057695;28;20503;-75
2021/04/08 04:48:45;;;;;;;6.07;4.30;;;2.30;89.90;;;;;;5072075;28;20611;-75
2021/04/08 04:51:11;;;;;;;13.47;4.67;;;2.30;90.00;;;;;;5070999;28;20495;-72
2021/04/08 04:53:37;;;;;;;6.73;3.97;;;2.30;90.10;;;;;;5070838;28;20287;-73
2021/04/08 04:56:03;;;;;;;9.10;4.20;;;2.40;89.90;;;;;;5069597;28;20941;-74
2021/04/08 04:58:28;;;;;;;9.60;3.90;;;2.40;89.60;;;;;;5072035;28;20194;-74
2021/04/08 05:00:54;;;;;;;8.07;4.50;;;2.30;89.50;;;;;;5067341;28;20435;-74
2021/04/08 05:03:20;;;;;;;9.37;4.27;;;2.40;89.30;;;;;;5077809;28;20210;-75
2021/04/08 05:05:46;;;;;;;9.90;4.30;;;2.40;88.60;;;;;;5070794;28;20611;-74
2021/04/08 05:08:12;;;;;;;10.70;4.00;;;2.40;88.70;;;;;;5070685;28;20218;-75
2021/04/08 05:10:38;;;;;;;10.02;4.30;;;2.40;88.30;;;;;;5071887;28;20418;-75
2021/04/08 05:13:04;;;;;;;8.00;4.20;;;2.40;88.60;;;;;;5071865;28;20176;-72
2021/04/08 05:15:30;;;;;;;6.20;3.73;;;2.40;88.30;;;;;;5062814;28;20180;-72
2021/04/08 05:17:56;;;;;;;6.47;4.23;;;2.40;88.00;;;;;;5071882;28;20446;-72
2021/04/08 05:20:21;;;;;;;8.83;4.50;;;2.40;88.00;;;;;;5072343;28;20184;-72
2021/04/08 05:22:47;;;;;;;10.53;4.60;;;2.40;88.00;;;;;;5072321;28;20180;-72
2021/04/08 05:25:13;;;;;;;11.30;4.47;;;2.30;88.60;;;;;;5071871;28;20184;-72
2021/04/08 05:27:39;;;;;;;7.30;4.80;;;2.30;88.00;;;;;;5071917;28;20701;-72
2021/04/08 05:30:05;;;;;;;9.50;4.60;;;2.30;87.30;;;;;;5073709;28;20418;-71
2021/04/08 05:32:31;;;;;;;8.20;4.90;;;2.30;86.60;;;;;;5072792;28;20194;-72
2021/04/08 05:34:57;;;;;;;9.47;5.60;;;2.30;85.90;;;;;;5070753;28;20287;-73
2021/04/08 05:37:23;;;;;;;11.67;5.83;;;2.30;83.70;;;;;;5066739;28;20438;-72
2021/04/08 05:39:48;;;;;;;8.83;5.17;;;2.40;84.10;;;;;;5066654;28;20193;-72
2021/04/08 05:42:14;;;;;;;11.30;5.17;;;2.40;84.00;;;;;;5063323;28;20192;-71
2021/04/08 05:44:40;;;;;;;7.30;5.10;;;2.40;83.60;;;;;;5067968;28;20196;-73
2021/04/08 05:47:06;;;;;;;9.13;5.10;;;2.50;82.50;;;;;;5073798;28;20212;-72
2021/04/08 05:49:32;;;;;;;15.70;5.00;;;2.50;81.90;;;;;;5068749;28;20191;-71
2021/04/08 05:51:58;;;;;;;7.40;4.27;;;2.60;82.10;;;;;;5071615;28;20529;-72
2021/04/08 05:54:24;;;;;;;7.57;4.20;;;2.60;82.20;;;;;;5071299;28;20961;-72
2021/04/08 05:56:49;;;;;;;9.90;4.00;;;2.70;81.90;;;;;;5071501;28;20442;-72
2021/04/08 05:59:15;;;;;;;6.43;4.03;;;2.70;81.40;;;;;;5071418;28;20214;-71
2021/04/08 06:01:41;;;;;;;7.57;4.37;;;2.70;80.80;;;;;;5070262;28;20477;-71
2021/04/08 06:04:07;;;;;;;8.20;3.47;;;2.70;80.50;;;;;;5066916;28;20192;-72
2021/04/08 06:06:33;;;;;;;8.90;4.30;;;2.70;79.90;;;;;;5061881;28;20264;-72
2021/04/08 06:08:58;;;;;;;6.63;3.93;;;2.60;79.70;;;;;;5072354;28;20473;-71
2021/04/08 06:11:24;;;;;;;14.00;4.70;;;2.70;80.30;;;;;;5071958;28;20190;-72
2021/04/08 06:13:51;;;;;;;8.00;3.93;;;2.70;79.60;;;;;;5070152;28;20689;-72
2021/04/08 06:16:17;;;;;;;11.13;4.50;;;2.60;79.90;;;;;;5070028;28;20606;-72
2021/04/08 06:18:42;;;;;;;6.23;4.47;;;2.70;80.50;;;;;;5072384;28;20186;-72
2021/04/08 06:21:08;;;;;;;10.63;3.97;;;2.80;80.90;;;;;;5072485;28;20218;-72
2021/04/08 06:23:34;;;;;;;9.40;4.43;;;2.90;79.60;;;;;;5071979;28;20525;-72
2021/04/08 06:26:00;;;;;;;9.20;4.80;;;2.80;78.60;;;;;;5066962;28;20254;-72
2021/04/08 06:28:26;;;;;;;11.63;4.97;;;3.00;79.60;;;;;;5068743;28;20644;-71
2021/04/08 06:30:52;;;;;;;6.63;3.83;;;3.10;80.00;;;;;;5070829;28;20302;-72
2021/04/08 06:33:17;;;;;;;7.00;4.33;;;3.10;79.60;;;;;;5072218;28;20472;-71
2021/04/08 06:35:43;;;;;;;10.10;3.87;;;3.10;78.10;;;;;;5070592;28;20184;-72
2021/04/08 06:38:09;;;;;;;13.97;4.17;;;3.20;77.80;;;;;;5070769;28;20179;-72
2021/04/08 06:40:35;;;;;;;7.80;3.93;;;3.30;77.40;;;;;;5070821;28;20192;-71
2021/04/08 06:43:02;;;;;;;13.88;5.82;;;3.30;78.30;;;;;;5071425;28;21009;-72
2021/04/08 06:45:30;;;;;;;6.30;4.55;;;3.20;77.40;;;;;;5071987;28;20191;-72
2021/04/08 06:48:07;;;;;;;9.10;4.88;;;3.20;77.80;;;;;;5071734;28;20261;-71
2021/04/08 06:50:38;;;;;;;14.43;5.17;;;3.30;78.00;;;;;;5070812;28;20217;-72
2021/04/08 06:53:05;;;;;;;12.90;5.53;;;3.20;76.80;;;;;;5071763;28;20442;-71
2021/04/08 06:55:31;;;;;;;9.07;5.37;;;3.30;77.30;;;;;;5087405;28;20437;-71
2021/04/08 06:58:03;;;;;;;7.40;5.20;;;3.20;76.40;;;;;;5071028;28;20438;-72
2021/04/08 07:00:29;;;;;;;11.97;6.23;;;3.40;77.00;;;;;;5069704;28;20433;-71
2021/04/08 07:02:57;;;;;;;10.27;5.77;;;3.40;76.20;;;;;;5057659;28;20418;-71
2021/04/08 07:05:22;;;;;;;10.23;6.10;;;3.60;75.80;;;;;;5070248;28;20414;-71
2021/04/08 07:07:48;;;;;;;11.30;6.53;;;3.80;75.10;;;;;;5070153;28;20468;-71
2021/04/08 07:10:14;;;;;;;15.07;6.77;;;3.70;72.40;;;;;;5070044;28;20195;-71
2021/04/08 07:12:40;;;;;;;10.27;6.40;;;3.70;71.60;;;;;;5072342;28;20199;-71
2021/04/08 07:15:07;;;;;;;11.00;5.97;;;3.60;71.00;;;;;;5072264;28;20446;-71
2021/04/08 07:17:34;;;;;;;12.30;6.30;;;3.70;70.80;;;;;;5071490;28;20430;-71
2021/04/08 07:20:00;;;;;;;13.80;6.60;;;3.60;70.40;;;;;;5072172;28;20471;-72
2021/04/08 07:22:26;;;;;;;9.38;6.38;;;3.60;69.70;;;;;;5072348;28;20502;-71
2021/04/08 07:24:53;;;;;;;14.57;7.53;;;3.50;69.50;;;;;;5073072;28;20195;-71
2021/04/08 07:27:21;;;;;;;9.70;6.50;;;3.60;69.50;;;;;;5059540;28;20698;-71
2021/04/08 07:29:51;;;;;;;16.53;7.20;;;3.70;69.40;;;;;;5070554;28;20418;-72
2021/04/08 07:32:33;;;;;;;12.87;6.87;;;3.90;68.90;;;;;;5070404;28;20433;-72
2021/04/08 07:35:18;;;;;;;18.38;8.38;;;3.90;68.30;;;;;;5070654;28;20425;-71
2021/04/08 07:37:59;;;;;;;18.80;8.30;;;4.00;67.90;;;;;;5070697;28;20264;-71
2021/04/08 07:40:27;;;;;;;15.37;7.10;;;4.20;67.30;;;;;;5072855;28;20414;-72
2021/04/08 07:42:53;;;;;;;13.80;7.53;;;4.10;67.50;;;;;;5073445;28;20509;-70
2021/04/08 07:45:33;;;;;;;15.23;7.43;;;4.00;67.90;;;;;;5061495;28;20514;-71
2021/04/08 07:48:04;;;;;;;14.67;8.13;;;4.10;68.20;;;;;;5067152;28;20555;-74
2021/04/08 07:50:31;;;;;;;17.20;8.20;;;4.00;67.30;;;;;;5069318;28;20433;-72
2021/04/08 07:52:58;;;;;;;20.20;8.10;;;4.10;68.00;;;;;;5071158;28;20494;-72
2021/04/08 07:55:36;;;;;;;10.47;7.13;;;4.20;68.00;;;;;;5070721;28;20471;-72
2021/04/08 07:58:14;;;;;;;13.40;7.30;;;4.50;66.90;;;;;;5073112;28;20530;-71
2021/04/08 08:00:51;;;;;;;12.43;8.00;;;4.60;65.00;;;;;;5071784;28;20418;-71
2021/04/08 08:03:23;;;;;;;11.67;7.50;;;4.70;64.70;;;;;;5075341;28;20788;-73
2021/04/08 08:05:50;;;;;;;16.17;7.53;;;4.50;64.80;;;;;;5075204;28;20418;-73
2021/04/08 08:08:22;;;;;;;16.47;6.77;;;4.40;65.70;;;;;;5074869;28;20461;-72
2021/04/08 08:11:08;;;;;;;14.50;7.10;;;4.60;65.40;;;;;;5074922;28;20424;-73
2021/04/08 08:13:39;;;;;;;12.07;6.60;;;4.60;64.70;;;;;;5074087;28;20517;-72
2021/04/08 08:16:06;;;;;;;16.03;8.00;;;4.70;64.20;;;;;;5064189;28;20446;-73
2021/04/08 08:18:40;;;;;;;15.03;7.23;;;4.80;63.40;;;;;;5074294;28;20513;-73
2021/04/08 08:21:28;;;;;;;11.03;6.80;;;4.80;62.60;;;;;;5073583;28;20840;-73
2021/04/08 08:23:57;;;;;;;10.70;6.17;;;4.80;61.90;;;;;;5073952;28;20425;-72
2021/04/08 08:26:35;;;;;;;10.20;6.60;;;4.70;59.70;;;;;;5073991;28;20461;-71
2021/04/08 08:29:10;;;;;;;12.20;6.00;;;4.70;61.20;;;;;;5063948;28;20497;-71
2021/04/08 08:31:37;;;;;;;12.43;6.27;;;4.90;59.70;;;;;;5074564;28;20432;-72
2021/04/08 08:34:09;;;;;;;12.33;6.50;;;5.00;59.10;;;;;;5074198;28;20501;-72
2021/04/08 08:36:37;;;;;;;11.23;6.33;;;5.10;57.40;;;;;;5073905;28;20471;-71
2021/04/08 08:39:05;;;;;;;9.87;5.13;;;5.30;58.70;;;;;;5072970;28;20491;-72
2021/04/08 08:41:31;;;;;;;8.50;5.63;;;5.20;59.30;;;;;;5074256;28;20421;-72
2021/04/08 08:43:58;;;;;;;10.10;5.07;;;5.30;59.30;;;;;;5073903;28;20486;-70
2021/04/08 08:46:26;;;;;;;10.60;5.20;;;5.40;58.90;;;;;;5058609;28;20498;-72
2021/04/08 08:48:53;;;;;;;8.40;5.20;;;5.30;58.10;;;;;;5074006;28;20469;-73
2021/04/08 08:51:21;;;;;;;9.40;5.53;;;5.40;57.70;;;;;;5075568;28;20418;-72
2021/04/08 08:53:48;;;;;;;9.77;5.00;;;5.50;56.50;;;;;;5075284;28;20449;-74
2021/04/08 08:56:15;;;;;;;8.17;4.80;;;5.70;57.20;;;;;;5071858;28;20858;-73
2021/04/08 08:58:41;;;;;;;9.50;4.83;;;5.80;54.60;;;;;;5073912;28;20782;-72
2021/04/08 09:01:07;;;;;;;7.40;4.70;;;5.70;52.80;;;;;;5073191;28;20421;-72
2021/04/08 09:03:34;;;;;;;8.00;4.90;;;5.50;53.60;;;;;;5089351;28;20437;-74
2021/04/08 09:06:05;;;;;;;6.87;4.20;;;5.70;53.80;;;;;;5073228;28;20465;-72
2021/04/08 09:08:33;;;;;;;10.60;5.17;;;5.70;53.00;;;;;;5073600;28;20946;-71
2021/04/08 09:10:59;;;;;;;9.03;5.43;;;6.00;53.30;;;;;;5071937;28;20426;-72
2021/04/08 09:13:25;;;;;;;7.07;4.70;;;6.00;52.80;;;;;;5071678;28;20422;-72
2021/04/08 09:15:51;;;;;;;12.80;4.67;;;6.10;53.00;;;;;;5063769;28;20433;-72
2021/04/08 09:18:23;;;;;;;8.53;6.27;;;6.20;52.80;;;;;;5074001;28;20430;-73
2021/04/08 09:20:50;;;;;;;7.63;4.90;;;6.20;52.90;;;;;;5072525;28;20422;-72
2021/04/08 09:23:19;;;;;;;8.93;4.90;;;6.00;52.40;;;;;;5072165;28;20414;-70
2021/04/08 09:25:56;;;;;;;9.83;5.37;;;5.90;53.00;;;;;;5071634;28;20423;-72
2021/04/08 09:28:23;;;;;;;11.47;4.67;;;5.50;53.60;;;;;;5072677;28;20560;-72
2021/04/08 09:33:42;;;;;;;7.80;4.93;;;5.70;54.40;;;;;;5072320;28;20429;-70
2021/04/08 09:36:20;;;;;;;8.73;4.63;;;5.90;53.80;;;;;;5071483;28;20879;-72
2021/04/08 09:38:56;;;;;;;7.13;4.90;;;6.00;53.40;;;;;;5072457;28;20916;-71
2021/04/08 09:41:41;;;;;;;7.87;4.57;;;5.70;51.40;;;;;;5072402;28;20433;-72
2021/04/08 09:44:09;;;;;;;12.20;5.33;;;5.80;51.40;;;;;;5071887;28;20813;-71
2021/04/08 09:46:44;;;;;;;8.03;4.70;;;5.90;51.30;;;;;;5057998;28;21379;-73
2021/04/08 09:49:10;;;;;;;9.80;4.50;;;6.00;51.20;;;;;;5068185;28;20611;-72
2021/04/08 09:51:44;;;;;;;5.50;4.13;;;6.10;50.50;;;;;;5072836;28;20872;-72
2021/04/08 09:54:12;;;;;;;10.57;4.53;;;6.20;50.10;;;;;;5072299;28;20894;-72
2021/04/08 09:56:42;;;;;;;7.30;4.10;;;5.90;50.10;;;;;;5072303;28;20520;-73
2021/04/08 09:59:08;;;;;;;8.47;4.70;;;5.90;51.00;;;;;;5072711;28;20418;-72
2021/04/08 10:01:34;;;;;;;9.57;4.30;;;6.10;50.20;;;;;;5073227;28;20418;-71
2021/04/08 10:04:17;;;;;;;8.80;4.40;;;6.20;50.90;;;;;;5072191;28;20485;-72
2021/04/08 10:06:44;;;;;;;9.87;5.00;;;6.30;51.60;;;;;;5071278;28;20208;-72
2021/04/08 10:09:15;;;;;;;8.20;4.17;;;6.50;51.30;;;;;;5072673;28;20824;-72
2021/04/08 10:11:41;;;;;;;7.70;4.70;;;6.50;49.80;;;;;;5073387;28;20924;-73
2021/04/08 10:14:28;;;;;;;13.00;4.70;;;6.60;50.10;;;;;;5067597;28;20527;-72
2021/04/08 10:17:03;;;;;;;12.00;4.90;;;6.80;51.20;;;;;;5068891;28;20449;-73
2021/04/08 10:19:49;;;;;;;15.20;6.30;;;7.00;51.80;;;;;;5072183;28;20479;-72
2021/04/08 10:22:15;;;;;;;10.10;5.60;;;6.70;51.70;;;;;;5072449;28;20797;-72
2021/04/08 10:24:43;;;;;;;11.60;5.40;;;6.30;52.10;;;;;;5071528;28;20433;-71
2021/04/08 10:27:25;;;;;;;9.27;4.90;;;6.40;52.50;;;;;;5068152;28;20504;-72
2021/04/08 10:29:51;;;;;;;8.47;4.90;;;6.20;52.20;;;;;;5068777;28;20475;-72
2021/04/08 10:32:34;;;;;;;13.83;6.30;;;6.10;53.20;;;;;;5066459;28;20430;-72
2021/04/08 10:35:00;;;;;;;8.80;5.10;;;6.20;52.90;;;;;;5069179;28;20777;-73
2021/04/08 10:37:28;;;;;;;10.93;6.10;;;6.30;52.40;;;;;;5071218;28;20521;-72
2021/04/08 10:39:54;;;;;;;9.13;5.50;;;6.30;51.80;;;;;;5072830;28;20423;-71
2021/04/08 10:42:22;;;;;;;11.03;5.00;;;6.40;52.00;;;;;;5074487;28;20421;-73
2021/04/08 10:44:50;;;;;;;15.70;5.60;;;6.60;51.00;;;;;;5066578;28;20889;-71
2021/04/08 10:47:20;;;;;;;10.90;5.40;;;6.70;50.30;;;;;;5062726;28;20509;-72
2021/04/08 10:49:54;;;;;;;11.73;5.10;;;6.90;50.30;;;;;;5072832;28;20494;-72
2021/04/08 10:52:31;;;;;;;8.60;4.83;;;7.00;49.00;;;;;;5072380;28;20450;-72
2021/04/08 10:55:04;;;;;;;7.13;4.73;;;6.70;49.90;;;;;;5072093;28;20532;-73
2021/04/08 10:57:31;;;;;;;8.27;5.30;;;6.60;50.10;;;;;;5071099;28;20438;-71
2021/04/08 10:59:58;;;;;;;9.10;4.93;;;6.60;50.50;;;;;;5072710;28;20425;-72
2021/04/08 11:02:33;;;;;;;9.73;5.57;;;6.70;50.70;;;;;;5072895;28;20418;-72
2021/04/08 11:05:02;;;;;;;9.30;5.70;;;7.00;50.10;;;;;;5071689;28;20420;-72
2021/04/08 11:07:38;;;;;;;9.20;6.10;;;7.00;49.80;;;;;;5073980;28;20445;-72
2021/04/08 11:10:25;;;;;;;11.90;7.40;;;6.80;50.30;;;;;;5074445;28;20478;-70
2021/04/08 11:12:52;;;;;;;8.57;6.10;;;6.70;51.00;;;;;;5061232;28;20472;-72
2021/04/08 11:15:21;;;;;;;9.53;5.83;;;6.80;52.10;;;;;;5060327;28;20426;-73
2021/04/08 11:17:53;;;;;;;14.30;5.83;;;6.90;51.40;;;;;;5073109;28;20430;-72
2021/04/08 11:20:46;;;;;;;17.03;7.43;;;6.80;51.00;;;;;;5071968;28;20418;-73
2021/04/08 11:23:16;;;;;;;11.70;6.20;;;6.60;51.60;;;;;;5065828;28;20498;-73
2021/04/08 11:25:42;;;;;;;10.40;6.53;;;6.90;51.00;;;;;;5064644;28;20518;-73
2021/04/08 11:28:08;;;;;;;10.20;5.93;;;7.10;50.90;;;;;;5065274;28;20549;-72
2021/04/08 11:30:40;;;;;;;15.77;7.10;;;7.60;50.10;;;;;;5070261;28;20425;-72
2021/04/08 11:33:14;;;;;;;16.13;6.77;;;7.90;48.90;;;;;;5070048;28;20487;-73
2021/04/08 11:35:44;;;;;;;7.27;4.77;;;8.10;47.50;;;;;;5067996;28;20787;-72
2021/04/08 11:38:19;;;;;;;7.50;4.07;;;8.00;44.50;;;;;;5068825;28;20796;-72
2021/04/08 11:40:47;;;;;;;8.87;4.87;;;8.00;44.90;;;;;;5071971;28;20504;-72
2021/04/08 11:43:19;;;;;;;7.10;4.50;;;8.00;44.60;;;;;;5071697;28;20429;-72
2021/04/08 11:45:45;;;;;;;10.20;5.20;;;8.10;44.70;;;;;;5055006;28;20439;-73
2021/04/08 11:48:11;;;;;;;6.43;4.43;;;8.30;43.90;;;;;;5069663;28;20458;-72
2021/04/08 11:50:42;;;;;;;5.87;3.90;;;8.20;44.10;;;;;;5087457;28;20422;-72
2021/04/08 11:53:11;;;;;;;7.20;4.30;;;8.00;43.90;;;;;;5070467;28;20434;-72
2021/04/08 11:55:41;;;;;;;9.97;4.60;;;8.00;44.30;;;;;;5069438;28;20421;-73
2021/04/08 11:58:08;;;;;;;8.20;4.57;;;8.20;43.90;;;;;;5066034;28;20427;-73
2021/04/08 12:00:35;;;;;;;6.00;3.97;;;8.30;43.80;;;;;;5065037;28;20479;-72
2021/04/08 12:03:25;;;;;;;7.77;4.07;;;8.60;43.00;;;;;;5070891;28;20441;-72
2021/04/08 12:05:52;;;;;;;8.73;4.47;;;8.80;42.80;;;;;;5070955;28;20513;-72
2021/04/08 12:08:39;;;;;;;13.00;5.50;;;8.80;41.90;;;;;;5069618;28;20470;-73
2021/04/08 12:11:06;;;;;;;6.87;3.50;;;8.80;41.90;;;;;;5057169;28;20475;-72
2021/04/08 12:13:32;;;;;;;5.93;4.07;;;8.50;42.70;;;;;;5084770;28;20435;-72
2021/04/08 12:15:58;;;;;;;7.47;3.97;;;8.40;43.20;;;;;;5059476;28;20853;-73
2021/04/08 12:18:29;;;;;;;7.43;3.73;;;8.50;43.40;;;;;;5067689;28;20422;-71
2021/04/08 12:20:56;;;;;;;7.30;4.03;;;8.40;43.10;;;;;;5069490;28;20187;-71
2021/04/08 12:23:24;;;;;;;8.93;4.37;;;8.80;43.50;;;;;;5069400;28;20488;-72
2021/04/08 12:25:53;;;;;;;5.63;3.90;;;9.20;42.40;;;;;;5063629;28;20849;-72
2021/04/08 12:28:22;;;;;;;6.50;3.97;;;9.10;41.90;;;;;;5066330;28;20744;-72
2021/04/08 12:31:01;;;;;;;7.97;4.13;;;9.10;42.00;;;;;;5069247;28;20858;-72
2021/04/08 12:33:32;;;;;;;8.47;3.60;;;8.80;41.40;;;;;;5085066;28;20539;-73
2021/04/08 12:35:59;;;;;;;13.17;4.33;;;8.30;43.00;;;;;;5067813;28;20446;-74
2021/04/08 12:38:25;;;;;;;7.20;3.87;;;8.30;44.70;;;;;;5056054;28;20430;-72
2021/04/08 12:40:53;;;;;;;6.00;3.87;;;8.40;44.60;;;;;;5069725;28;20478;-71
2021/04/08 12:43:20;;;;;;;9.53;4.80;;;8.30;45.40;;;;;;5069373;28;20450;-72
2021/04/08 12:45:47;;;;;;;6.37;3.70;;;8.40;45.10;;;;;;5055952;28;20431;-71
2021/04/08 12:48:13;;;;;;;10.30;4.33;;;8.60;44.10;;;;;;5064644;28;20470;-73
2021/04/08 12:50:41;;;;;;;6.97;3.47;;;8.60;43.90;;;;;;5065999;28;20489;-71
2021/04/08 12:53:07;;;;;;;11.83;4.17;;;8.80;43.90;;;;;;5076420;28;20437;-72
2021/04/08 12:55:33;;;;;;;5.10;3.60;;;8.70;43.20;;;;;;5077198;28;20426;-72
2021/04/08 12:57:59;;;;;;;7.03;3.50;;;8.60;43.40;;;;;;5073361;28;20449;-73
2021/04/08 13:00:26;;;;;;;5.33;3.27;;;8.80;42.70;;;;;;5068269;28;20446;-73
2021/04/08 13:02:53;;;;;;;10.33;4.10;;;8.80;42.80;;;;;;5072697;28;20459;-71
2021/04/08 13:05:20;;;;;;;6.47;4.20;;;8.80;42.70;;;;;;5072054;28;20535;-73